^^
Station Historical Data
 
Daily Summary for October 25, 2014 Units:  English    Metric   Both
« Previous Day
Next Day »
Daily Weekly Monthly Yearly Custom
  Current: High: Low: Average:
Temperature: 64.7 °F 64.7 °F 43.9 °F 51.3 °F
Dew Point: 42.3 °F 46.5 °F 36.8 °F 40.3 °F
Humidity: 44% 81% 41% 67%
Wind Speed: 7.5mph 13.8mph 0.0mph 6mph
Wind Gust: 15.9mph 25.1mph - -
WindSSW - - SSW
Pressure: 29.80 in 30.03 in 29.79 in -
Precipitation: 0.00 in      
Historical Graphs
 
 
Tabular Data for October 25, 2014
Time Temperature Dew Point Pressure Wind Wind Speed Wind Gust Humidity Rainfall Rate (Hourly)
00:04 45.3 °F 37.5 °F 30.03 in Calm     74% 0.00 in
00:09 45.3 °F 37.5 °F 30.03 in Calm     74% 0.00 in
00:14 45.3 °F 37.5 °F 30.03 in Calm     74% 0.00 in
00:19 45.3 °F 37.2 °F 30.02 in SE 0.1 mph 3.1 mph 73% 0.00 in
00:24 45.3 °F 37.2 °F 30.03 in West 1.0 mph 3.1 mph 73% 0.00 in
00:30 45.3 °F 37.2 °F 30.02 in WNW 1.6 mph 3.1 mph 73% 0.00 in
00:35 45.3 °F 37.2 °F 30.02 in NW 2.3 mph 3.1 mph 73% 0.00 in
00:40 45.3 °F 37.2 °F 30.02 in NW 2.2 mph 3.1 mph 73% 0.00 in
00:45 45.3 °F 37.2 °F 30.02 in WNW 1.5 mph 3.1 mph 73% 0.00 in
00:50 45.3 °F 37.2 °F 30.02 in WNW 1.7 mph 2.2 mph 73% 0.00 in
00:55 45.3 °F 37.2 °F 30.02 in WNW 1.5 mph 2.2 mph 73% 0.00 in
01:00 45.3 °F 37.2 °F 30.02 in WNW 1.4 mph 1.6 mph 73% 0.00 in
01:05 45.1 °F 37.0 °F 30.02 in WNW 1.8 mph 3.1 mph 73% 0.00 in
01:10 45.1 °F 37.0 °F 30.02 in WNW 2.0 mph 3.1 mph 73% 0.00 in
01:15 45.1 °F 37.0 °F 30.02 in WNW 1.7 mph 2.2 mph 73% 0.00 in
01:20 45.1 °F 37.0 °F 30.02 in WSW 1.5 mph 2.2 mph 73% 0.00 in
01:25 44.9 °F 36.8 °F 30.03 in WNW 1.7 mph 3.1 mph 73% 0.00 in
01:30 44.9 °F 36.8 °F 30.02 in NW 1.6 mph 3.1 mph 73% 0.00 in
01:35 44.9 °F 36.8 °F 30.03 in WNW 1.4 mph 2.2 mph 73% 0.00 in
01:40 45.1 °F 37.0 °F 30.02 in WSW 2.0 mph 3.8 mph 73% 0.00 in
01:45 45.3 °F 37.2 °F 30.02 in SW 2.1 mph 3.8 mph 73% 0.00 in
01:50 45.3 °F 37.5 °F 30.02 in South 1.7 mph 3.8 mph 74% 0.00 in
01:55 45.5 °F 37.7 °F 30.02 in South 1.7 mph 3.1 mph 74% 0.00 in
02:00 45.7 °F 37.9 °F 30.02 in South 2.2 mph 3.8 mph 74% 0.00 in
02:05 45.7 °F 37.9 °F 30.02 in South 2.4 mph 3.8 mph 74% 0.00 in
02:10 46.2 °F 37.7 °F 30.02 in South 2.7 mph 4.5 mph 72% 0.00 in
02:15 46.2 °F 37.7 °F 30.01 in South 3.5 mph 4.5 mph 72% 0.00 in
02:20 46.2 °F 37.3 °F 30.01 in SSW 3.8 mph 4.5 mph 71% 0.00 in
02:25 46.2 °F 37.3 °F 30.01 in SSW 3.8 mph 4.5 mph 71% 0.00 in
02:30 46.2 °F 37.3 °F 30.01 in South 3.7 mph 6.0 mph 71% 0.00 in
02:35 46.2 °F 37.3 °F 30.02 in South 3.1 mph 6.0 mph 71% 0.00 in
02:40 46.0 °F 37.2 °F 30.01 in South 2.8 mph 5.4 mph 71% 0.00 in
02:45 46.0 °F 37.2 °F 30.01 in South 3.5 mph 5.4 mph 71% 0.00 in
02:50 46.0 °F 37.5 °F 30.01 in SSW 3.9 mph 5.4 mph 72% 0.00 in
02:55 46.2 °F 37.7 °F 30.01 in South 3.6 mph 5.4 mph 72% 0.00 in
03:00 46.2 °F 37.7 °F 30.00 in South 3.1 mph 3.8 mph 72% 0.00 in
03:05 46.2 °F 37.7 °F 30.00 in South 3.1 mph 3.8 mph 72% 0.00 in
03:10 46.0 °F 37.5 °F 30.00 in South 3.0 mph 3.1 mph 72% 0.00 in
03:15 46.2 °F 38.0 °F 30.00 in WSW 2.8 mph 5.4 mph 73% 0.00 in
03:20 46.2 °F 38.0 °F 30.00 in WSW 3.1 mph 5.4 mph 73% 0.00 in
03:25 46.2 °F 37.7 °F 30.00 in SSW 3.4 mph 5.4 mph 72% 0.00 in
03:30 46.4 °F 38.2 °F 30.00 in South 2.9 mph 5.4 mph 73% 0.00 in
03:35 46.4 °F 38.2 °F 30.00 in SW 2.8 mph 4.5 mph 73% 0.00 in
03:40 46.6 °F 38.4 °F 30.00 in WSW 2.8 mph 4.5 mph 73% 0.00 in
03:45 46.6 °F 38.4 °F 30.00 in SSW 3.1 mph 5.4 mph 73% 0.00 in
03:50 46.7 °F 38.6 °F 30.00 in South 3.6 mph 5.4 mph 73% 0.00 in
03:55 46.7 °F 38.2 °F 30.00 in SW 4.4 mph 9.2 mph 72% 0.00 in
04:00 46.9 °F 38.4 °F 30.00 in SW 4.6 mph 9.2 mph 72% 0.00 in
04:05 46.9 °F 38.4 °F 30.00 in South 4.3 mph 6.0 mph 72% 0.00 in
04:10 46.9 °F 38.7 °F 30.00 in South 4.5 mph 6.0 mph 73% 0.00 in
04:15 46.9 °F 38.7 °F 30.00 in SSE 4.6 mph 6.0 mph 73% 0.00 in
04:20 46.7 °F 38.6 °F 30.00 in South 4.5 mph 6.0 mph 73% 0.00 in
04:26 46.7 °F 38.6 °F 29.99 in South 4.1 mph 6.0 mph 73% 0.00 in
04:31 46.6 °F 38.4 °F 29.99 in South 4.2 mph 5.4 mph 73% 0.00 in
04:36 46.6 °F 38.4 °F 29.99 in South 4.6 mph 5.4 mph 73% 0.00 in
04:41 46.7 °F 38.9 °F 29.99 in SSW 4.3 mph 6.0 mph 74% 0.00 in
04:46 46.6 °F 38.7 °F 29.99 in South 3.8 mph 6.0 mph 74% 0.00 in
04:51 46.4 °F 38.6 °F 29.99 in South 3.5 mph 4.5 mph 74% 0.00 in
04:56 46.4 °F 38.6 °F 29.99 in South 3.8 mph 5.4 mph 74% 0.00 in
05:01 46.6 °F 38.7 °F 29.99 in South 4.0 mph 5.4 mph 74% 0.00 in
05:06 46.6 °F 38.7 °F 29.99 in South 3.9 mph 5.4 mph 74% 0.00 in
05:11 46.4 °F 38.9 °F 29.98 in South 3.7 mph 4.5 mph 75% 0.00 in
05:16 46.4 °F 38.9 °F 29.98 in South 3.6 mph 5.4 mph 75% 0.00 in
05:21 46.4 °F 38.9 °F 29.98 in SSW 3.0 mph 5.4 mph 75% 0.00 in
05:26 46.2 °F 38.7 °F 29.98 in South 2.2 mph 3.8 mph 75% 0.00 in
05:31 46.0 °F 38.5 °F 29.98 in South 1.7 mph 3.1 mph 75% 0.00 in
05:36 46.0 °F 38.9 °F 29.98 in South 1.5 mph 3.1 mph 76% 0.00 in
05:41 45.7 °F 38.5 °F 29.97 in SSW 1.6 mph 3.1 mph 76% 0.00 in
05:46 45.5 °F 38.4 °F 29.98 in SSW 1.3 mph 3.1 mph 76% 0.00 in
05:51 45.1 °F 38.0 °F 29.97 in WSW 1.4 mph 3.1 mph 76% 0.00 in
05:56 45.1 °F 38.3 °F 29.97 in SSW 2.1 mph 3.8 mph 77% 0.00 in
06:01 44.9 °F 38.2 °F 29.97 in SSW 2.1 mph 3.8 mph 77% 0.00 in
06:06 44.9 °F 38.2 °F 29.97 in South 1.8 mph 3.1 mph 77% 0.00 in
06:11 44.6 °F 38.2 °F 29.98 in SSW 2.5 mph 3.8 mph 78% 0.00 in
06:16 44.4 °F 38.0 °F 29.98 in WSW 2.4 mph 3.8 mph 78% 0.00 in
06:21 44.4 °F 38.3 °F 29.99 in South 2.0 mph 4.5 mph 79% 0.00 in
06:26 44.4 °F 38.3 °F 29.98 in South 1.8 mph 4.5 mph 79% 0.00 in
06:31 44.6 °F 38.5 °F 29.98 in South 1.8 mph 3.8 mph 79% 0.00 in
06:36 44.6 °F 38.5 °F 29.98 in SSW 1.5 mph 3.1 mph 79% 0.00 in
06:41 44.4 °F 38.3 °F 29.99 in WSW 1.1 mph 3.1 mph 79% 0.00 in
06:46 44.4 °F 38.3 °F 29.99 in WSW 0.5 mph 2.2 mph 79% 0.00 in
06:51 44.2 °F 38.1 °F 29.99 in SSW 0.1 mph 0.7 mph 79% 0.00 in
06:56 44.0 °F 38.0 °F 29.99 in Calm     79% 0.00 in
07:01 44.0 °F 38.0 °F 29.99 in Calm     79% 0.00 in
07:06 44.0 °F 38.0 °F 29.99 in Calm     79% 0.00 in
07:11 43.9 °F 38.1 °F 29.99 in South 0.1 mph 0.7 mph 80% 0.00 in
07:16 44.0 °F 38.3 °F 29.99 in South 0.5 mph 0.7 mph 80% 0.00 in
07:21 44.0 °F 38.3 °F 29.99 in South 0.9 mph 1.6 mph 80% 0.00 in
07:26 44.0 °F 38.6 °F 29.99 in South 1.6 mph 3.1 mph 81% 0.00 in
07:31 44.0 °F 38.6 °F 29.99 in South 2.1 mph 3.8 mph 81% 0.00 in
07:36 44.2 °F 38.8 °F 29.99 in South 2.4 mph 3.8 mph 81% 0.00 in
07:41 44.4 °F 38.9 °F 29.98 in South 2.6 mph 3.1 mph 81% 0.00 in
07:46 44.2 °F 38.8 °F 29.99 in South 2.8 mph 3.8 mph 81% 0.00 in
07:51 44.4 °F 38.9 °F 29.98 in South 2.8 mph 3.8 mph 81% 0.00 in
07:56 44.8 °F 39.3 °F 29.99 in South 2.6 mph 3.8 mph 81% 0.00 in
08:01 44.6 °F 39.1 °F 29.99 in South 2.9 mph 4.5 mph 81% 0.00 in
08:07 44.6 °F 39.1 °F 29.99 in South 3.2 mph 4.5 mph 81% 0.00 in
08:12 44.8 °F 39.3 °F 29.99 in South 3.2 mph 3.8 mph 81% 0.00 in
08:17 44.8 °F 39.3 °F 29.99 in South 3.4 mph 5.4 mph 81% 0.00 in
08:22 44.9 °F 39.2 °F 29.99 in South 4.0 mph 6.0 mph 80% 0.00 in
08:27 45.1 °F 39.3 °F 29.98 in South 4.4 mph 6.0 mph 80% 0.00 in
08:32 45.1 °F 39.3 °F 29.98 in South 5.0 mph 6.9 mph 80% 0.00 in
08:37 45.3 °F 39.2 °F 29.98 in South 5.6 mph 7.6 mph 79% 0.00 in
08:42 45.5 °F 39.4 °F 29.98 in South 5.5 mph 7.6 mph 79% 0.00 in
08:47 45.7 °F 39.5 °F 29.99 in SSW 4.8 mph 6.9 mph 79% 0.00 in
08:52 45.8 °F 39.4 °F 29.98 in SW 5.1 mph 6.9 mph 78% 0.00 in
08:57 46.0 °F 39.6 °F 29.98 in SSW 5.8 mph 7.6 mph 78% 0.00 in
09:02 46.0 °F 39.6 °F 29.98 in South 6.1 mph 7.6 mph 78% 0.00 in
09:07 46.0 °F 39.6 °F 29.97 in South 6.6 mph 6.9 mph 78% 0.00 in
09:12 46.7 °F 39.6 °F 29.98 in South 6.3 mph 7.6 mph 76% 0.00 in
09:17 47.3 °F 40.1 °F 29.98 in South 6.0 mph 7.6 mph 76% 0.00 in
09:22 47.8 °F 39.9 °F 29.97 in South 5.9 mph 8.3 mph 74% 0.00 in
09:27 48.2 °F 40.3 °F 29.98 in South 5.6 mph 8.3 mph 74% 0.00 in
09:32 48.4 °F 40.1 °F 29.97 in SSE 6.6 mph 9.2 mph 73% 0.00 in
09:37 48.7 °F 40.1 °F 29.98 in South 7.3 mph 9.2 mph 72% 0.00 in
09:42 48.9 °F 40.3 °F 29.97 in South 6.5 mph 8.3 mph 72% 0.00 in
09:47 49.1 °F 40.1 °F 29.97 in South 6.0 mph 6.9 mph 71% 0.00 in
09:52 49.3 °F 40.3 °F 29.97 in South 5.9 mph 6.9 mph 71% 0.00 in
09:57 50.0 °F 41.0 °F 29.97 in South 5.1 mph 6.9 mph 71% 0.00 in
10:02 50.5 °F 40.7 °F 29.97 in South 6.4 mph 9.2 mph 69% 0.00 in
10:07 50.5 °F 40.7 °F 29.97 in South 8.6 mph 9.2 mph 69% 0.00 in
10:12 51.6 °F 40.6 °F 29.96 in SSW 8.1 mph 9.2 mph 66% 0.00 in
10:17 51.6 °F 40.6 °F 29.96 in SSW 7.5 mph 10.7 mph 66% 0.00 in
10:22 52.0 °F 41.0 °F 29.96 in South 8.1 mph 10.7 mph 66% 0.00 in
10:27 52.7 °F 41.7 °F 29.96 in South 7.9 mph 9.8 mph 66% 0.00 in
10:32 53.2 °F 41.4 °F 29.96 in South 8.0 mph 10.7 mph 64% 0.00 in
10:37 53.8 °F 41.5 °F 29.96 in South 8.7 mph 13.6 mph 63% 0.00 in
10:42 54.1 °F 41.8 °F 29.96 in South 9.4 mph 13.6 mph 63% 0.00 in
10:47 54.5 °F 41.3 °F 29.95 in SSW 9.7 mph 13.0 mph 61% 0.00 in
10:52 54.5 °F 41.7 °F 29.95 in South 9.1 mph 13.0 mph 62% 0.00 in
10:57 54.7 °F 42.3 °F 29.94 in SSW 7.2 mph 11.4 mph 63% 0.00 in
11:02 54.8 °F 42.1 °F 29.94 in SW 7.7 mph 14.5 mph 62% 0.00 in
11:07 54.8 °F 42.5 °F 29.93 in SW 9.4 mph 14.5 mph 63% 0.00 in
11:12 55.2 °F 42.4 °F 29.93 in SW 9.4 mph 12.1 mph 62% 0.00 in
11:17 55.6 °F 42.8 °F 29.93 in South 8.4 mph 12.1 mph 62% 0.00 in
11:22 55.7 °F 42.9 °F 29.93 in SSE 8.9 mph 15.2 mph 62% 0.00 in
11:27 56.1 °F 43.3 °F 29.93 in SSW 10.2 mph 15.2 mph 62% 0.00 in
11:32 56.5 °F 43.6 °F 29.92 in SSW 7.7 mph 14.5 mph 62% 0.00 in
11:37 56.6 °F 42.9 °F 29.92 in South 6.3 mph 9.2 mph 60% 0.00 in
11:42 56.5 °F 42.8 °F 29.92 in SSW 8.3 mph 12.1 mph 60% 0.00 in
11:47 56.3 °F 42.6 °F 29.92 in South 8.1 mph 12.1 mph 60% 0.00 in
11:52 56.5 °F 43.2 °F 29.92 in South 7.0 mph 12.1 mph 61% 0.00 in
11:57 56.8 °F 43.5 °F 29.91 in SSW 6.9 mph 12.1 mph 61% 0.00 in
12:03 57.0 °F 43.7 °F 29.91 in SSW 7.5 mph 9.2 mph 61% 0.00 in
12:08 58.3 °F 45.3 °F 29.91 in WSW 8.3 mph 9.2 mph 62% 0.00 in
12:13 58.8 °F 45.0 °F 29.91 in West 8.5 mph 12.1 mph 60% 0.00 in
12:18 59.3 °F 45.0 °F 29.91 in SSW 8.5 mph 12.1 mph 59% 0.00 in
12:23 59.3 °F 44.6 °F 29.91 in South 8.9 mph 15.2 mph 58% 0.00 in
12:28 59.3 °F 45.0 °F 29.91 in South 8.9 mph 15.2 mph 59% 0.00 in
12:33 59.0 °F 44.7 °F 29.91 in South 10.4 mph 19.7 mph 59% 0.00 in
12:38 59.0 °F 45.6 °F 29.91 in South 13.0 mph 19.7 mph 61% 0.00 in
12:43 59.5 °F 45.6 °F 29.91 in SSW 13.0 mph 19.0 mph 60% 0.00 in
12:48 59.5 °F 45.6 °F 29.91 in SSW 13.0 mph 18.3 mph 60% 0.00 in
12:53 59.5 °F 45.2 °F 29.90 in SSW 12.1 mph 18.3 mph 59% 0.00 in
12:58 59.3 °F 45.5 °F 29.91 in South 10.7 mph 13.6 mph 60% 0.00 in
13:03 59.3 °F 45.5 °F 29.90 in SW 12.2 mph 14.5 mph 60% 0.00 in
13:08 59.5 °F 45.6 °F 29.90 in West 13.8 mph 14.5 mph 60% 0.00 in
13:13 59.7 °F 45.8 °F 29.89 in West 11.3 mph 14.5 mph 60% 0.00 in
13:18 59.9 °F 46.0 °F 29.88 in WSW 8.5 mph 10.7 mph 60% 0.00 in
13:23 60.6 °F 46.2 °F 29.87 in South 9.2 mph 14.5 mph 59% 0.00 in
13:28 61.1 °F 46.3 °F 29.87 in South 10.0 mph 14.5 mph 58% 0.00 in
13:33 61.1 °F 45.8 °F 29.86 in South 10.6 mph 16.8 mph 57% 0.00 in
13:38 61.3 °F 46.0 °F 29.86 in SSW 12.6 mph 19.0 mph 57% 0.00 in
13:43 61.9 °F 46.5 °F 29.85 in SW 12.3 mph 19.0 mph 57% 0.00 in
13:48 62.6 °F 46.2 °F 29.86 in South 11.4 mph 19.7 mph 55% 0.00 in
13:53 62.9 °F 45.6 °F 29.85 in South 12.4 mph 19.7 mph 53% 0.00 in
13:58 63.5 °F 45.0 °F 29.85 in SSW 10.3 mph 17.4 mph 51% 0.00 in
14:03 63.5 °F 45.0 °F 29.84 in South 10.8 mph 14.5 mph 51% 0.00 in
14:08 63.3 °F 44.9 °F 29.84 in South 13.3 mph 14.5 mph 51% 0.00 in
14:13 62.8 °F 43.9 °F 29.84 in South 12.1 mph 14.5 mph 50% 0.00 in
14:18 62.4 °F 43.5 °F 29.84 in South 10.8 mph 14.5 mph 50% 0.00 in
14:23 62.4 °F 43.0 °F 29.84 in South 10.9 mph 22.1 mph 49% 0.00 in
14:28 62.6 °F 43.7 °F 29.83 in SSW 10.8 mph 22.1 mph 50% 0.00 in
14:33 62.6 °F 42.6 °F 29.83 in SW 9.5 mph 17.4 mph 48% 0.00 in
14:38 62.6 °F 43.2 °F 29.83 in SSW 11.4 mph 25.1 mph 49% 0.00 in
14:43 62.6 °F 43.2 °F 29.83 in SSW 11.9 mph 25.1 mph 49% 0.00 in
14:48 62.6 °F 43.2 °F 29.83 in SSW 10.0 mph 15.9 mph 49% 0.00 in
14:53 62.8 °F 43.3 °F 29.82 in SSW 10.7 mph 16.8 mph 49% 0.00 in
14:58 62.9 °F 43.0 °F 29.82 in SSW 11.3 mph 16.8 mph 48% 0.00 in
15:03 63.1 °F 42.6 °F 29.82 in WSW 12.4 mph 16.8 mph 47% 0.00 in
15:08 63.8 °F 42.1 °F 29.82 in West 13.7 mph 14.5 mph 45% 0.00 in
15:13 63.8 °F 41.5 °F 29.83 in WSW 12.3 mph 14.5 mph 44% 0.00 in
15:18 63.7 °F 41.9 °F 29.82 in WSW 9.4 mph 13.6 mph 45% 0.00 in
15:23 63.7 °F 41.4 °F 29.82 in West 8.1 mph 12.1 mph 44% 0.00 in
15:28 63.8 °F 40.9 °F 29.82 in SSW 8.4 mph 10.7 mph 43% 0.00 in
15:33 63.8 °F 40.9 °F 29.81 in SSW 9.5 mph 15.9 mph 43% 0.00 in
15:38 64.0 °F 41.1 °F 29.80 in SSW 10.7 mph 15.9 mph 43% 0.00 in
15:43 64.2 °F 41.3 °F 29.80 in SW 10.9 mph 15.2 mph 43% 0.00 in
15:48 64.7 °F 41.1 °F 29.80 in SSW 10.8 mph 22.1 mph 42% 0.00 in
15:53 64.7 °F 41.7 °F 29.80 in SSW 10.9 mph 22.1 mph 43% 0.00 in
15:58 64.7 °F 40.5 °F 29.80 in SSW 12.5 mph 22.1 mph 41% 0.00 in
16:04 64.7 °F 41.1 °F 29.80 in SSW 13.2 mph 21.3 mph 42% 0.00 in
16:09 64.6 °F 41.0 °F 29.80 in SW 11.1 mph 18.3 mph 42% 0.00 in
16:14 64.6 °F 41.6 °F 29.80 in WSW 9.8 mph 21.3 mph 43% 0.00 in
16:19 64.4 °F 41.4 °F 29.80 in SW 10.4 mph 21.3 mph 43% 0.00 in
16:24 64.6 °F 41.6 °F 29.80 in South 10.3 mph 15.2 mph 43% 0.00 in
16:29 64.6 °F 41.6 °F 29.79 in South 10.0 mph 15.9 mph 43% 0.00 in
16:34 64.7 °F 42.3 °F 29.80 in SSW 7.5 mph 15.9 mph 44% 0.00 in
Export, Pennsylvania, USA
Compliments of Weather Underground